Time;durP1;ratioP1;P1;durP2;ratioP2;P2;SDS_P1;SDS_P2;PMS_P1;PMS_P2;Temp;Humidity;BMP_temperature;BMP_pressure;BME280_temperature;BME280_humidity;BME280_pressure;Samples;Min_cycle;Max_cycle;Signal;HPM_P1;HPM_P2
2022/08/30 00:01:35;;;;;;;11.17;10.33;;;;;;;14.42;100.00;97353.63;4958316;28;20217;-57
2022/08/30 00:07:36;;;;;;;11.97;10.87;;;;;;;14.38;100.00;97350.53;5004393;28;20219;-59
2022/08/30 00:10:05;;;;;;;11.83;10.93;;;;;;;14.36;100.00;97347.25;4978159;28;20821;-59
2022/08/30 00:12:34;;;;;;;11.47;10.47;;;;;;;14.31;100.00;97339.06;4986115;28;20291;-59
2022/08/30 00:15:03;;;;;;;12.43;11.53;;;;;;;14.19;100.00;97325.50;4996984;28;20205;-63
2022/08/30 00:17:33;;;;;;;12.70;11.37;;;;;;;14.21;100.00;97336.78;4981833;28;20212;-59
2022/08/30 00:20:01;;;;;;;13.00;11.70;;;;;;;14.26;100.00;97338.84;4985408;28;20231;-57
2022/08/30 00:22:31;;;;;;;12.83;11.60;;;;;;;14.32;100.00;97338.03;5009166;28;20278;-59
2022/08/30 00:25:00;;;;;;;13.27;11.97;;;;;;;14.27;100.00;97330.63;4979961;28;20228;-60
2022/08/30 00:27:29;;;;;;;13.37;12.17;;;;;;;14.36;100.00;97335.75;4985999;28;20220;-56
2022/08/30 00:29:57;;;;;;;13.13;12.03;;;;;;;14.32;100.00;97335.38;5006016;28;20313;-60
2022/08/30 00:32:26;;;;;;;13.17;11.83;;;;;;;14.38;100.00;97337.22;4965093;28;20236;-60
2022/08/30 00:34:56;;;;;;;12.40;11.33;;;;;;;14.42;100.00;97335.78;5003915;28;20204;-59
2022/08/30 00:37:24;;;;;;;16.33;12.93;;;;;;;14.42;100.00;97334.97;5002512;28;20867;-56
2022/08/30 00:39:53;;;;;;;12.43;11.23;;;;;;;14.42;100.00;97335.78;4996540;28;20223;-59
2022/08/30 00:42:22;;;;;;;13.67;12.47;;;;;;;14.38;100.00;97339.88;4974724;28;20724;-57
2022/08/30 00:44:50;;;;;;;13.37;12.03;;;;;;;14.40;100.00;97345.03;5008064;28;20215;-56
2022/08/30 00:47:19;;;;;;;12.57;10.90;;;;;;;14.38;100.00;97339.03;4963759;28;20270;-56
2022/08/30 00:49:50;;;;;;;12.17;11.10;;;;;;;14.32;100.00;97341.50;5007572;28;20224;-57
2022/08/30 00:52:21;;;;;;;12.33;11.20;;;;;;;14.19;100.00;97336.97;5011540;28;20200;-55
2022/08/30 00:54:51;;;;;;;11.70;10.70;;;;;;;14.15;100.00;97340.28;5007701;28;20252;-59
2022/08/30 00:57:19;;;;;;;12.30;11.23;;;;;;;14.11;100.00;97333.72;4967050;28;20937;-52
2022/08/30 00:59:49;;;;;;;12.50;11.40;;;;;;;14.09;100.00;97335.75;5003262;28;20240;-55
2022/08/30 01:02:19;;;;;;;12.60;11.40;;;;;;;14.02;100.00;97333.06;4968490;28;20945;-59
2022/08/30 01:04:48;;;;;;;13.33;12.17;;;;;;;14.02;100.00;97336.56;5006292;28;20722;-59
2022/08/30 01:07:16;;;;;;;11.60;10.70;;;;;;;14.01;100.00;97334.09;4956789;28;20273;-58
2022/08/30 01:09:46;;;;;;;12.63;11.43;;;;;;;13.97;100.00;97324.88;5002128;28;20220;-58
2022/08/30 01:12:15;;;;;;;11.87;10.83;;;;;;;13.89;100.00;97331.19;5006563;28;20200;-59
2022/08/30 01:14:45;;;;;;;12.47;11.37;;;;;;;13.81;100.00;97329.53;4982622;28;20757;-59
2022/08/30 01:17:15;;;;;;;12.20;11.00;;;;;;;13.81;100.00;97318.88;5004708;28;20243;-58
2022/08/30 01:19:49;;;;;;;11.13;10.23;;;;;;;13.74;100.00;97324.22;5008616;28;20718;-55
2022/08/30 01:22:22;;;;;;;12.60;11.47;;;;;;;13.73;100.00;97321.75;4943750;28;20284;-60
2022/08/30 01:24:53;;;;;;;12.60;11.40;;;;;;;13.72;100.00;97318.28;5007159;28;22333;-59
2022/08/30 01:27:22;;;;;;;12.67;11.67;;;;;;;13.71;100.00;97323.78;5008646;28;20251;-58
2022/08/30 01:29:51;;;;;;;17.43;12.43;;;;;;;13.69;100.00;97329.31;5006841;28;20231;-58
2022/08/30 01:32:23;;;;;;;13.43;12.13;;;;;;;13.70;100.00;97319.47;5003768;28;20266;-58
2022/08/30 01:34:56;;;;;;;13.03;11.83;;;;;;;13.68;100.00;97330.34;5008272;28;20281;-60
2022/08/30 01:37:27;;;;;;;13.70;12.50;;;;;;;13.58;100.00;97329.88;4961583;28;20216;-56
2022/08/30 01:39:58;;;;;;;12.43;11.43;;;;;;;13.50;100.00;97324.75;5007838;28;20954;-56
2022/08/30 01:42:27;;;;;;;12.53;11.33;;;;;;;13.43;100.00;97328.19;5003957;28;20200;-58
2022/08/30 01:44:55;;;;;;;12.67;11.67;;;;;;;13.37;100.00;97323.66;5009609;28;20616;-58
2022/08/30 01:47:23;;;;;;;13.57;12.43;;;;;;;13.40;100.00;97325.06;5008437;28;20200;-55
2022/08/30 01:49:52;;;;;;;13.83;12.17;;;;;;;13.44;100.00;97321.03;5006758;28;20266;-56
2022/08/30 01:52:20;;;;;;;12.67;11.67;;;;;;;13.41;100.00;97332.88;4973156;28;20200;-60
2022/08/30 01:54:49;;;;;;;14.07;12.87;;;;;;;13.41;100.00;97326.72;5004978;28;20208;-56
2022/08/30 01:57:25;;;;;;;14.03;12.80;;;;;;;13.45;100.00;97336.00;5004702;28;20254;-59
2022/08/30 01:59:54;;;;;;;13.37;12.37;;;;;;;13.49;100.00;97339.06;5010717;28;20247;-58
2022/08/30 02:02:25;;;;;;;14.10;12.47;;;;;;;13.56;100.00;97335.41;5006152;28;20205;-57
2022/08/30 02:04:54;;;;;;;14.37;13.03;;;;;;;13.58;100.00;97341.38;5010425;28;20201;-54
2022/08/30 02:07:23;;;;;;;13.67;12.47;;;;;;;13.46;100.00;97321.66;4959648;28;21288;-59
2022/08/30 02:09:52;;;;;;;13.20;11.80;;;;;;;13.50;100.00;97335.38;5006852;28;20227;-56
2022/08/30 02:12:22;;;;;;;13.20;12.03;;;;;;;13.40;100.00;97327.72;4977095;28;20956;-58
2022/08/30 02:14:50;;;;;;;13.30;12.10;;;;;;;13.32;100.00;97326.88;5007221;28;20207;-60
2022/08/30 02:17:19;;;;;;;13.27;11.93;;;;;;;13.27;100.00;97336.50;5004717;28;20235;-54
2022/08/30 02:19:47;;;;;;;13.10;12.00;;;;;;;13.24;100.00;97328.88;5009577;28;20993;-56
2022/08/30 02:22:16;;;;;;;13.77;12.40;;;;;;;13.21;100.00;97334.59;5007548;28;20254;-59
2022/08/30 02:24:44;;;;;;;12.53;11.43;;;;;;;13.19;100.00;97334.81;4975227;28;20238;-58
2022/08/30 02:27:13;;;;;;;13.20;12.10;;;;;;;13.10;100.00;97333.34;5006046;28;21229;-59
2022/08/30 02:29:42;;;;;;;13.03;12.03;;;;;;;13.10;100.00;97330.69;5001152;28;20228;-56
2022/08/30 02:32:11;;;;;;;14.00;12.80;;;;;;;13.03;100.00;97342.09;5013973;28;20224;-57
2022/08/30 02:34:39;;;;;;;14.23;12.77;;;;;;;13.05;100.00;97339.25;5006200;28;21021;-58
2022/08/30 02:37:17;;;;;;;14.33;12.90;;;;;;;12.99;100.00;97338.19;4977486;28;20228;-59
2022/08/30 02:39:45;;;;;;;13.67;12.53;;;;;;;13.00;100.00;97334.50;4969939;28;20232;-57
2022/08/30 02:42:14;;;;;;;13.57;11.97;;;;;;;13.01;100.00;97333.47;5006077;28;20204;-58
2022/08/30 02:44:44;;;;;;;13.57;12.43;;;;;;;13.01;100.00;97333.47;5008589;28;20209;-56
2022/08/30 15:10:33;;;;;;;4.53;3.13;;;;;;;31.35;27.61;97148.75;5015939;28;20262;-59
2022/08/30 15:13:16;;;;;;;4.93;3.43;;;;;;;29.82;29.11;97147.97;5013942;28;20256;-54
2022/08/30 15:15:59;;;;;;;3.60;3.27;;;;;;;29.42;30.26;97146.72;5015346;28;20330;-55
2022/08/30 15:22:23;;;;;;;3.60;3.40;;;;;;;27.86;33.70;97140.69;4988467;28;20232;-58
2022/08/30 15:24:51;;;;;;;5.00;3.47;;;;;;;27.95;32.88;97137.28;4984937;28;20215;-57
2022/08/30 15:27:19;;;;;;;3.70;3.40;;;;;;;27.41;33.33;97132.94;5005603;28;20704;-56
2022/08/30 15:29:47;;;;;;;4.20;3.40;;;;;;;27.26;34.14;97133.97;5004055;28;20232;-55
2022/08/30 15:32:17;;;;;;;3.93;3.50;;;;;;;27.44;33.55;97126.13;4985315;28;20233;-56
2022/08/30 15:34:45;;;;;;;3.60;3.37;;;;;;;26.97;34.04;97123.25;4991009;28;20857;-53
2022/08/30 15:37:24;;;;;;;3.17;2.97;;;;;;;26.99;34.74;97124.56;4998850;28;20238;-56
2022/08/30 15:39:52;;;;;;;4.20;3.63;;;;;;;26.76;35.08;97120.78;4985277;28;20576;-54
2022/08/30 15:42:21;;;;;;;3.90;3.60;;;;;;;26.81;35.79;97120.72;5003896;28;20224;-56
2022/08/30 15:44:51;;;;;;;3.33;3.13;;;;;;;26.81;35.62;97120.72;5009771;28;20212;-52
2022/08/30 15:47:20;;;;;;;3.50;3.30;;;;;;;26.43;35.68;97117.91;5003807;28;20222;-56
2022/08/30 15:49:54;;;;;;;4.20;3.40;;;;;;;26.57;35.56;97124.25;4973651;28;20314;-53
2022/08/30 15:52:25;;;;;;;4.23;3.33;;;;;;;26.65;35.79;97109.22;5001645;28;20740;-58
2022/08/30 15:54:54;;;;;;;3.13;2.90;;;;;;;26.45;35.81;97113.00;5010049;28;20213;-53
2022/08/30 15:57:23;;;;;;;4.07;3.30;;;;;;;26.28;37.22;97103.38;4986271;28;20286;-57
2022/08/30 15:59:53;;;;;;;4.43;3.27;;;;;;;26.48;36.45;97106.97;5011737;28;20225;-57
2022/08/30 16:02:21;;;;;;;3.23;2.77;;;;;;;26.56;36.00;97109.03;5004495;28;20288;-57
2022/08/30 16:04:54;;;;;;;3.53;3.23;;;;;;;26.39;37.73;97108.72;4977376;28;20592;-52
2022/08/30 16:07:24;;;;;;;5.63;3.70;;;;;;;26.40;37.16;97104.91;5003069;28;20212;-56
2022/08/30 16:09:52;;;;;;;5.13;4.63;;;;;;;26.53;38.09;97104.19;5009996;28;20220;-56
2022/08/30 16:12:20;;;;;;;4.20;3.90;;;;;;;26.49;40.78;97111.31;4985536;28;20212;-55
2022/08/30 16:14:50;;;;;;;4.57;3.43;;;;;;;26.35;38.12;97105.75;5006256;28;20259;-49
2022/08/30 16:17:19;;;;;;;3.50;3.20;;;;;;;26.04;38.30;97111.47;4979397;28;20236;-55
2022/08/30 16:19:47;;;;;;;3.53;3.23;;;;;;;26.06;39.51;97101.13;4974041;28;20999;-52
2022/08/30 16:22:15;;;;;;;7.33;4.03;;;;;;;25.96;39.24;97109.41;5007115;28;20220;-53
2022/08/30 16:24:50;;;;;;;3.77;3.37;;;;;;;25.83;39.68;97102.72;5011479;28;20278;-54
2022/08/30 16:27:18;;;;;;;3.47;3.27;;;;;;;25.75;39.28;97103.34;4988008;28;20231;-54
2022/08/30 16:29:48;;;;;;;5.43;3.70;;;;;;;25.69;40.93;97097.97;5000357;28;20316;-55
2022/08/30 16:32:17;;;;;;;7.17;3.50;;;;;;;25.55;39.31;97084.25;5006774;28;20292;-56
2022/08/30 16:34:45;;;;;;;3.97;3.63;;;;;;;25.52;40.03;97084.81;5006445;28;20205;-51
2022/08/30 16:37:13;;;;;;;4.03;3.60;;;;;;;25.17;41.15;97078.53;4975210;28;20209;-58
2022/08/30 16:39:41;;;;;;;3.87;3.57;;;;;;;25.18;41.39;97085.59;4987366;28;20227;-54
2022/08/30 16:42:15;;;;;;;4.07;3.47;;;;;;;24.91;43.30;97086.81;4998992;28;20220;-55
2022/08/30 16:44:48;;;;;;;4.07;3.73;;;;;;;24.96;42.72;97086.00;4977104;28;20886;-52
2022/08/30 16:47:17;;;;;;;5.23;3.80;;;;;;;24.87;44.23;97082.25;4998782;28;20197;-58
2022/08/30 16:49:45;;;;;;;3.70;3.40;;;;;;;24.70;44.68;97091.50;5007530;28;20937;-59
2022/08/30 16:52:13;;;;;;;4.97;4.50;;;;;;;24.57;49.98;97074.78;4964446;28;20219;-57
2022/08/30 16:54:42;;;;;;;5.07;4.67;;;;;;;24.30;60.08;97086.00;5007344;28;20863;-52
2022/08/30 16:57:11;;;;;;;5.87;5.17;;;;;;;24.20;64.64;97086.00;5005398;28;20665;-58
2022/08/30 16:59:40;;;;;;;6.17;5.60;;;;;;;24.09;69.13;97087.94;4981230;28;20235;-54
2022/08/30 17:02:08;;;;;;;6.03;5.53;;;;;;;23.89;79.62;97077.94;5000785;28;20966;-58
2022/08/30 17:04:38;;;;;;;5.30;5.00;;;;;;;23.75;81.68;97086.59;5000232;28;20207;-53
2022/08/30 17:07:06;;;;;;;7.07;6.00;;;;;;;23.70;84.18;97092.03;4964192;28;20209;-57
2022/08/30 17:09:41;;;;;;;5.50;5.10;;;;;;;23.68;84.89;97086.91;5004320;28;20221;-54
2022/08/30 17:12:09;;;;;;;6.33;5.83;;;;;;;23.64;84.55;97088.50;5008297;28;20205;-57
2022/08/30 17:14:37;;;;;;;5.90;4.90;;;;;;;23.52;85.84;97087.97;4983765;28;21457;-52
2022/08/30 17:17:07;;;;;;;6.80;5.80;;;;;;;23.38;94.86;97085.81;5003753;28;20221;-56
2022/08/30 17:19:36;;;;;;;5.70;5.20;;;;;;;23.22;94.67;97086.84;5004840;28;20294;-55
2022/08/30 17:22:09;;;;;;;5.27;4.87;;;;;;;23.11;96.64;97094.94;4965937;28;20569;-56
2022/08/30 17:24:37;;;;;;;6.33;4.93;;;;;;;23.04;96.13;97096.25;4956527;28;20212;-56
2022/08/30 17:27:06;;;;;;;6.03;5.30;;;;;;;22.86;97.92;97097.56;4979209;28;20278;-57
2022/08/30 17:29:34;;;;;;;6.40;5.60;;;;;;;22.72;97.30;97095.38;4993408;28;20235;-54
2022/08/30 17:32:05;;;;;;;5.50;5.10;;;;;;;22.63;100.00;97107.78;4976569;28;20209;-57
2022/08/30 17:34:35;;;;;;;6.07;5.53;;;;;;;22.54;100.00;97110.97;4989684;28;21056;-57
2022/08/30 17:37:04;;;;;;;6.70;6.10;;;;;;;22.49;100.00;97107.44;5007176;28;20304;-54
2022/08/30 17:39:32;;;;;;;5.30;4.80;;;;;;;22.36;100.00;97112.22;4963847;28;20240;-54
2022/08/30 17:42:00;;;;;;;6.07;5.47;;;;;;;22.25;100.00;97107.81;5003303;28;20200;-59
2022/08/30 17:44:32;;;;;;;9.67;5.37;;;;;;;22.06;100.00;97110.13;4998464;28;20231;-54
2022/08/30 17:47:00;;;;;;;7.27;6.67;;;;;;;21.94;100.00;97118.41;4980761;28;20713;-59
2022/08/30 17:49:29;;;;;;;5.50;4.97;;;;;;;21.77;100.00;97129.34;4975549;28;20444;-55
2022/08/30 17:52:00;;;;;;;6.97;6.17;;;;;;;21.69;100.00;97117.19;4998617;28;20204;-59
2022/08/30 17:54:30;;;;;;;5.60;5.10;;;;;;;21.52;100.00;97120.75;4945977;28;20231;-58
2022/08/30 17:56:59;;;;;;;6.13;5.63;;;;;;;21.43;100.00;97129.59;4989839;28;20216;-52
2022/08/30 17:59:28;;;;;;;6.17;5.67;;;;;;;21.32;100.00;97132.19;4980656;28;20224;-58
2022/08/30 18:02:00;;;;;;;6.47;5.97;;;;;;;21.28;100.00;97135.66;4977725;28;20224;-55
2022/08/30 18:04:29;;;;;;;6.07;5.57;;;;;;;21.17;100.00;97142.81;4978663;28;20254;-58
2022/08/30 18:06:58;;;;;;;6.13;5.73;;;;;;;21.06;100.00;97136.50;5004184;28;20296;-55
2022/08/30 18:09:27;;;;;;;6.13;5.67;;;;;;;20.98;100.00;97145.03;4986011;28;20236;-57
2022/08/30 18:12:00;;;;;;;6.10;5.57;;;;;;;20.86;100.00;97148.69;4990867;28;20209;-54
2022/08/30 18:14:29;;;;;;;6.27;5.87;;;;;;;20.86;100.00;97145.16;4996868;28;20208;-58
2022/08/30 18:16:57;;;;;;;6.70;6.00;;;;;;;20.79;100.00;97143.47;4969768;28;20244;-51
2022/08/30 18:19:28;;;;;;;9.50;6.87;;;;;;;20.63;100.00;97147.81;4979293;28;20689;-56
2022/08/30 18:21:56;;;;;;;6.37;5.93;;;;;;;20.53;100.00;97159.28;5006365;28;20218;-52
2022/08/30 18:24:26;;;;;;;6.87;6.10;;;;;;;20.52;100.00;97159.53;4998395;28;20289;-57
2022/08/30 18:26:55;;;;;;;6.40;5.90;;;;;;;20.45;100.00;97158.88;4937990;28;20898;-56
2022/08/30 18:29:23;;;;;;;6.67;6.07;;;;;;;20.35;100.00;97163.06;4998440;28;20224;-53
2022/08/30 18:31:58;;;;;;;6.27;5.77;;;;;;;20.32;100.00;97163.56;4953284;28;20262;-58
2022/08/30 18:34:26;;;;;;;6.53;6.03;;;;;;;20.16;100.00;97156.34;4980450;28;20208;-54
2022/08/30 18:36:55;;;;;;;7.47;6.77;;;;;;;20.11;100.00;97167.81;5000894;28;20652;-57
2022/08/30 18:39:23;;;;;;;6.17;5.50;;;;;;;20.04;100.00;97173.38;5004304;28;20228;-54
2022/08/30 18:41:52;;;;;;;6.90;6.30;;;;;;;20.04;100.00;97173.38;4958244;28;20576;-57
2022/08/30 18:44:22;;;;;;;8.37;6.97;;;;;;;19.93;100.00;97177.78;4996671;28;20216;-52
2022/08/30 18:46:57;;;;;;;7.40;6.80;;;;;;;19.87;100.00;97170.66;4961199;28;20205;-58
2022/08/30 18:49:27;;;;;;;7.13;6.53;;;;;;;19.86;100.00;97179.78;4979343;28;20225;-55
2022/08/30 18:51:55;;;;;;;7.97;6.73;;;;;;;19.79;100.00;97171.06;4965811;28;20330;-55
2022/08/30 18:54:23;;;;;;;7.20;6.50;;;;;;;19.78;100.00;97191.75;4973671;28;20228;-59
2022/08/30 18:56:53;;;;;;;7.17;6.53;;;;;;;19.74;100.00;97195.16;4963315;28;21204;-53
2022/08/30 18:59:21;;;;;;;6.67;6.03;;;;;;;19.74;100.00;97196.00;4977641;28;20277;-56
2022/08/30 19:02:02;;;;;;;6.27;5.77;;;;;;;19.79;100.00;97198.78;5002610;28;20200;-59
2022/08/30 19:04:32;;;;;;;6.20;5.73;;;;;;;19.81;100.00;97198.50;4968279;28;21002;-59
2022/08/30 19:07:04;;;;;;;8.70;6.60;;;;;;;19.79;100.00;97196.09;4969466;28;20212;-61
2022/08/30 19:09:32;;;;;;;6.67;6.13;;;;;;;19.78;100.00;97196.31;4993659;28;20243;-59
2022/08/30 19:12:02;;;;;;;6.10;5.70;;;;;;;19.81;100.00;97198.50;4999726;28;20298;-60
2022/08/30 19:14:38;;;;;;;6.97;6.17;;;;;;;19.79;100.00;97197.94;5000727;28;20295;-54
2022/08/30 19:17:07;;;;;;;6.40;5.90;;;;;;;19.58;100.00;97183.34;5007424;28;20228;-57
2022/08/30 19:19:36;;;;;;;7.27;6.63;;;;;;;19.53;100.00;97197.53;4983843;28;20647;-57
2022/08/30 19:22:16;;;;;;;6.93;6.33;;;;;;;19.37;100.00;97207.97;4974047;28;20954;-56
2022/08/30 19:24:45;;;;;;;7.57;6.87;;;;;;;19.35;100.00;97203.91;5006559;28;20252;-56
2022/08/30 19:27:15;;;;;;;6.60;6.07;;;;;;;19.39;100.00;97207.75;5004787;28;20398;-56
2022/08/30 19:29:43;;;;;;;7.50;6.63;;;;;;;19.25;100.00;97212.59;4965815;28;20235;-56
2022/08/30 19:32:12;;;;;;;7.53;7.03;;;;;;;19.26;100.00;97203.47;4959290;28;20276;-55
2022/08/30 19:34:41;;;;;;;7.23;6.53;;;;;;;19.20;100.00;97204.44;5006014;28;20212;-60
2022/08/30 19:37:09;;;;;;;8.30;6.63;;;;;;;19.13;100.00;97209.94;5003054;28;20729;-55
2022/08/30 19:39:45;;;;;;;6.47;5.97;;;;;;;19.12;100.00;97211.00;5001960;28;20335;-58
2022/08/30 19:42:15;;;;;;;6.97;6.37;;;;;;;18.99;100.00;97211.28;5005945;28;21054;-51
2022/08/30 19:44:44;;;;;;;7.20;5.90;;;;;;;18.89;100.00;97203.78;5003436;28;20773;-58
2022/08/30 19:47:12;;;;;;;7.00;6.47;;;;;;;18.94;100.00;97218.13;4970964;28;20846;-55
2022/08/30 19:49:41;;;;;;;7.07;6.43;;;;;;;18.89;100.00;97211.84;5005093;28;20239;-58
2022/08/30 19:52:09;;;;;;;6.03;5.43;;;;;;;18.86;100.00;97210.44;5011813;28;20266;-56
2022/08/30 19:54:37;;;;;;;7.03;6.43;;;;;;;18.81;100.00;97210.34;5003757;28;20274;-59
2022/08/30 19:57:08;;;;;;;8.43;6.20;;;;;;;18.73;100.00;97213.38;5008475;28;20216;-59
2022/08/30 19:59:38;;;;;;;6.53;6.03;;;;;;;18.66;100.00;97202.78;5007166;28;20259;-58
2022/08/30 20:02:07;;;;;;;6.80;6.20;;;;;;;18.63;100.00;97209.44;5006718;28;20943;-54
2022/08/30 20:04:35;;;;;;;6.63;6.03;;;;;;;18.62;100.00;97213.19;4966957;28;20235;-58
2022/08/30 20:07:07;;;;;;;8.43;6.40;;;;;;;18.59;100.00;97219.00;5005041;28;20204;-55
2022/08/30 20:09:36;;;;;;;6.43;5.90;;;;;;;18.61;100.00;97213.41;5003663;28;20229;-58
2022/08/30 20:12:04;;;;;;;6.30;5.83;;;;;;;18.60;100.00;97214.44;5006603;28;20205;-57
2022/08/30 20:14:33;;;;;;;7.53;6.53;;;;;;;18.56;100.00;97214.13;5002248;28;20263;-57
2022/08/30 20:17:03;;;;;;;6.37;5.90;;;;;;;18.56;100.00;97213.28;5001917;28;20258;-58
2022/08/30 20:19:32;;;;;;;7.27;6.60;;;;;;;18.48;100.00;97214.44;4970019;28;20305;-56
2022/08/30 20:22:00;;;;;;;7.70;6.13;;;;;;;18.45;100.00;97223.81;5005667;28;20196;-52
2022/08/30 20:24:35;;;;;;;6.73;6.13;;;;;;;18.29;100.00;97219.13;5000826;28;20282;-58
2022/08/30 20:27:08;;;;;;;6.30;5.80;;;;;;;18.32;100.00;97208.75;5004958;28;20280;-55
2022/08/30 20:29:36;;;;;;;6.00;5.60;;;;;;;18.22;100.00;97208.53;5000129;28;20239;-58
2022/08/30 20:32:06;;;;;;;6.30;5.80;;;;;;;18.21;100.00;97209.56;5006269;28;20224;-57
2022/08/30 20:34:34;;;;;;;7.13;6.37;;;;;;;18.22;100.00;97213.88;4967429;28;20208;-58
2022/08/30 20:37:02;;;;;;;6.97;6.43;;;;;;;18.22;100.00;97214.69;4999950;28;20228;-58
2022/08/30 20:39:30;;;;;;;8.53;7.57;;;;;;;18.07;100.00;97211.66;5007989;28;20792;-56
2022/08/30 20:41:58;;;;;;;6.30;5.90;;;;;;;18.04;100.00;97212.13;5000758;28;20192;-55
2022/08/30 20:44:26;;;;;;;6.40;5.93;;;;;;;17.91;100.00;97213.91;5006932;28;20287;-60
2022/08/30 20:46:54;;;;;;;7.57;6.70;;;;;;;17.83;100.00;97213.47;5003554;28;20209;-53
2022/08/30 20:49:24;;;;;;;6.83;6.17;;;;;;;17.88;100.00;97209.03;5002742;28;20523;-56
2022/08/30 20:51:52;;;;;;;6.63;6.23;;;;;;;17.85;100.00;97214.84;4968630;28;20225;-57
2022/08/30 20:54:21;;;;;;;6.83;6.30;;;;;;;17.83;100.00;97211.59;5010394;28;20227;-57
2022/08/30 20:56:50;;;;;;;6.63;6.00;;;;;;;17.72;100.00;97212.38;5000943;28;20843;-56
2022/08/30 20:59:18;;;;;;;7.33;6.67;;;;;;;17.71;100.00;97216.09;5006666;28;20305;-57
2022/08/30 21:01:47;;;;;;;7.30;6.70;;;;;;;17.63;100.00;97220.75;4997368;28;20196;-52
2022/08/30 21:04:16;;;;;;;7.43;6.80;;;;;;;17.63;100.00;97215.41;5008049;28;20273;-59
2022/08/30 21:06:46;;;;;;;6.97;6.47;;;;;;;17.57;100.00;97210.94;4962124;28;20974;-59
2022/08/30 21:09:15;;;;;;;7.20;6.23;;;;;;;17.50;100.00;97224.44;5000530;28;20236;-53
2022/08/30 21:11:44;;;;;;;8.77;6.80;;;;;;;17.59;100.00;97213.38;5002904;28;20216;-59
2022/08/30 21:14:12;;;;;;;6.97;6.40;;;;;;;17.52;100.00;97223.38;5003901;28;20279;-53
2022/08/30 21:16:40;;;;;;;7.03;6.43;;;;;;;17.37;100.00;97213.88;5005524;28;20285;-59
2022/08/30 21:19:09;;;;;;;7.27;6.63;;;;;;;17.47;100.00;97224.88;5004507;28;20209;-52
2022/08/30 21:21:37;;;;;;;7.87;6.90;;;;;;;17.47;100.00;97229.41;4964189;28;20240;-59
2022/08/30 21:24:08;;;;;;;7.30;6.70;;;;;;;17.40;100.00;97232.19;5001832;28;20789;-58
2022/08/30 21:26:37;;;;;;;7.47;6.67;;;;;;;17.36;100.00;97231.81;5004403;28;20225;-58
2022/08/30 21:29:06;;;;;;;6.80;6.30;;;;;;;17.34;100.00;97223.22;5003698;28;20295;-56
2022/08/30 21:31:36;;;;;;;7.87;7.07;;;;;;;17.23;100.00;97229.31;5005816;28;20292;-59
2022/08/30 21:34:04;;;;;;;7.60;6.90;;;;;;;17.14;100.00;97227.97;5003542;28;20288;-54
2022/08/30 21:36:44;;;;;;;6.93;6.43;;;;;;;17.16;100.00;97241.97;4969476;28;20220;-60
2022/08/30 21:39:15;;;;;;;8.20;7.53;;;;;;;17.02;100.00;97235.94;4959414;28;20716;-57
2022/08/30 21:41:44;;;;;;;6.80;6.23;;;;;;;16.93;100.00;97224.72;5003384;28;20639;-59
2022/08/30 21:44:13;;;;;;;9.20;7.57;;;;;;;17.17;100.00;97230.22;4985205;28;21062;-54
2022/08/30 21:46:41;;;;;;;6.73;6.13;;;;;;;17.09;100.00;97233.19;5012011;28;20259;-57
2022/08/30 21:49:11;;;;;;;7.80;7.20;;;;;;;16.97;100.00;97233.94;4981915;28;20256;-56
2022/08/30 21:51:42;;;;;;;12.23;9.53;;;;;;;17.11;100.00;97234.63;5008187;28;20239;-51
2022/08/30 21:54:12;;;;;;;6.57;6.07;;;;;;;16.99;100.00;97225.69;4964115;28;20358;-57
2022/08/30 21:56:43;;;;;;;8.33;6.67;;;;;;;16.96;100.00;97234.97;5004430;28;20205;-54
2022/08/30 21:59:11;;;;;;;8.23;7.53;;;;;;;16.89;100.00;97243.06;4999302;28;20209;-52
2022/08/30 22:01:41;;;;;;;7.27;6.67;;;;;;;16.84;100.00;97247.44;5007982;28;20747;-53
2022/08/30 22:04:11;;;;;;;7.70;7.07;;;;;;;16.72;100.00;97252.75;4980576;28;20212;-54
2022/08/30 22:06:43;;;;;;;7.33;6.67;;;;;;;16.63;100.00;97253.00;5005348;28;20674;-58
2022/08/30 22:09:13;;;;;;;7.90;7.10;;;;;;;16.74;100.00;97254.13;5004964;28;20270;-58
2022/08/30 22:11:43;;;;;;;8.67;7.53;;;;;;;16.68;100.00;97252.34;4965924;28;20997;-57
2022/08/30 22:14:12;;;;;;;7.83;6.83;;;;;;;16.65;100.00;97255.47;4998486;28;20208;-56
2022/08/30 22:16:41;;;;;;;6.63;6.03;;;;;;;16.67;100.00;97253.38;5010164;28;20235;-55
2022/08/30 22:19:10;;;;;;;8.33;7.00;;;;;;;16.73;100.00;97255.19;4986022;28;20208;-62
2022/08/30 22:21:40;;;;;;;6.83;6.33;;;;;;;16.67;100.00;97248.03;5003102;28;20739;-54
2022/08/30 22:24:09;;;;;;;8.13;7.33;;;;;;;16.59;100.00;97251.81;5001102;28;20972;-57
2022/08/30 22:26:38;;;;;;;8.37;6.73;;;;;;;16.68;100.00;97244.31;4966867;28;20223;-54
2022/08/30 22:29:08;;;;;;;7.87;7.07;;;;;;;16.67;100.00;97242.69;5001423;28;20278;-55
2022/08/30 22:31:37;;;;;;;7.70;6.70;;;;;;;16.63;100.00;97241.50;5002091;28;20339;-60
2022/08/30 22:34:10;;;;;;;6.90;6.37;;;;;;;16.61;100.00;97238.22;4983357;28;20209;-58
2022/08/30 22:36:38;;;;;;;7.03;6.33;;;;;;;16.47;100.00;97241.03;5004443;28;20497;-56
2022/08/30 22:39:08;;;;;;;7.83;6.97;;;;;;;16.54;100.00;97242.84;5002006;28;20197;-60
2022/08/30 22:41:40;;;;;;;7.23;6.70;;;;;;;16.56;100.00;97238.09;4970524;28;20308;-59
2022/08/30 22:44:10;;;;;;;8.80;7.27;;;;;;;16.46;100.00;97241.25;5000126;28;20209;-57
2022/08/30 22:46:40;;;;;;;10.03;6.67;;;;;;;16.40;100.00;97237.59;5010948;28;20254;-55
2022/08/30 22:49:09;;;;;;;8.50;7.30;;;;;;;16.34;100.00;97235.81;4987938;28;21296;-57
2022/08/30 22:51:38;;;;;;;7.50;6.80;;;;;;;16.34;100.00;97239.31;5009717;28;20208;-54
2022/08/30 22:54:08;;;;;;;9.30;7.07;;;;;;;16.26;100.00;97239.56;5005457;28;20233;-57
2022/08/30 22:56:37;;;;;;;8.57;6.57;;;;;;;16.28;100.00;97234.00;5008578;28;20213;-56
2022/08/30 22:59:05;;;;;;;8.53;7.20;;;;;;;16.25;100.00;97232.59;4963414;28;20205;-56
2022/08/30 23:01:36;;;;;;;8.27;7.30;;;;;;;16.16;100.00;97228.56;5005404;28;20328;-57
2022/08/30 23:04:05;;;;;;;7.43;6.67;;;;;;;16.20;100.00;97230.59;5006789;28;20304;-55
2022/08/30 23:06:34;;;;;;;8.13;7.30;;;;;;;16.19;100.00;97226.28;4995130;28;20263;-56
2022/08/30 23:09:02;;;;;;;7.40;6.83;;;;;;;16.20;100.00;97229.75;5003531;28;20283;-52
2022/08/30 23:11:30;;;;;;;7.47;6.90;;;;;;;16.10;100.00;97219.59;5013279;28;20269;-56
2022/08/30 23:14:00;;;;;;;7.97;7.17;;;;;;;16.02;100.00;97226.00;4964980;28;20265;-60
2022/08/30 23:16:29;;;;;;;7.77;6.67;;;;;;;15.93;100.00;97221.16;5010680;28;20286;-53
2022/08/30 23:18:58;;;;;;;9.00;7.70;;;;;;;15.82;100.00;97215.44;5002808;28;20232;-59
2022/08/30 23:21:28;;;;;;;8.50;7.07;;;;;;;15.79;100.00;97215.88;4992144;28;20216;-55
